Terminal Aerodrome Forecast
Issued by NWS

Home | Current Version | Previous Version | Text Only | Print | Product List | Glossary On
Versions: 1 2 3 4 5 6 7 8 9 10 11 12
014
FTUS45 KMSO 201120
TAFSMN
TAF
KSMN 201120Z 2012/2112 VRB03KT P6SM SCT060
     FM201900 35005KT 6SM FU SCT120
      AMD LTD TO CLD VIS AND WIND=

USA.gov is the U.S. government's official web portal to all federal, state and local government web resources and services.